Aeroporto :
LOGIN :

Iscrizione | Disclaimer

   EN    FR    IT 

 










Sommario :    VFR   VFR Marginale   IFR   IFR Intensivo   IFR Molto Intensivo
Visibilità : 
Base nubi : 
>= 8 km
>= 3000ft
5 / 8 km
1000 / 3000 ft
1500m / 5 km
500 / 1000 ft
800 / 1500m
200 / 500 ft
< 800m
< 200 ft
Simboli :   Temporali  Nebbia  Neve Forte  Precipitazioni Forti  Vento > 20 kt
SIGMETs :   Varie  Temporali  Ghiacco  Turbolenza  Onda orograficha  Ceneri Vulcaniche






- Altitudine del aeroporto : 65 ft
- Codice IATA : PIK


EGPK - Glasgow Prestwick

ULTIMO METAR :
  • 221950Z 23023G35KT 9999 SCT016 BKN033 06/01 Q1009

METARs OBSOLETI :
  • 221920Z 24020KT 9999 FEW015CB BKN035 05/02 Q1008
  • 221850Z 25023KT 9999 -SHRA FEW015CB BKN035 04/02 Q1009
  • 221820Z 27027KT 9999 -SHRA FEW015CB BKN045 04/01 Q1008
  • 221750Z 23022KT 9999 FEW015CB SCT025 05/01 Q1008
  • 221720Z 25028KT 9999 FEW008 FEW015CB SCT025 06/00 Q1007

TAF TAF EGPK
Valido dal 22 a 18 ore il 23 a 18 ore UTC


221659Z 2218/2318 25020G30KT 9999 SCT018
TEMPO 2218/2306 6000 SHRA BKN010
BECMG 2300/2303 25012KT
PROB30
TEMPO 2303/2306 4000 RADZ BKN008
BECMG 2310/2313 28017G27KT



MetMap, La meteo Aeronautica in un colpo d'occhio ! - Copyright ORBIFLY Dicembre 2007 - Disclaimer

ORBIFLY MET'MAP TEAM :

Programmazione e sviluppo : Alexandra Zaïnal
Concezione : Baudouin d'Aumeries
Aiuto per la programmazione : Marc-Olivier Méhu
Supporto tecnico e logistico : Manuel Goepfert
Aiuto per la traduzione : Arnaldo La Scala

Contatto : metmap@orbifly.com




FONTI E CREDITI :

   NOAA